SBOSBO GOT / ESGG
Speedbird OnlineSpeedbird Online GOT / ESGG

Gothenburg-Landvetter Airport
15:46 2.3°C

Location Gothenborg, Sweden
Latitude: 57.662799835205
Longitude: 12.279800415039
Web Airport Website | Wikipedia
Altitude 154 Meter / 506 Feet
Distance 1,038 KM / 645 Miles
from London.
Time Zone UTC +1 hours (Europe/Stockholm)
Codes IATA: GOT
ICAO: ESGG
Currency £1 equals SEK 12.90
Runways
RunwayLength (m)Surface
033299Asphalt
213299Asphalt
Radio
TypeDescriptionFrequency
ATISATIS118.375
GCCDGND121.9
TCAGOTEBORG APP124.68
TWRTWR118.6
Live ATC
METAR ESGG 311420Z 18010KT 6000 BR BKN002 OVC004 02/01 Q0993
TAF TAF ESGG 311430Z 3115/0115 21008KT 2000 RASN BR OVC003 BECMG 3115/3117 27015G28KT 9999 NSW SCT020 PROB40 3117/3119 BKN014 PROB40 0100/0109 BKN012 TEMPO 0109/0115 4000 SHRASN BKN006 BKN015CB
Weather As Of 31 Jan 2023 15:46
Description Mist
Wind 19 km/h from South (180°)
Cloud Cover 100%
Precipitation Rain: none, Snow: none
Sunrise 08:16
Sunset 16:32
Lounges Vinga Lounge , Terminal 1
Rotations During the last 90 days there were
178 flights from LHR
9 flights from CBG
178 flights to LHR
16 flights to CBG



Support Speedbird Online

© 2017-2023 Speedbird Online